Time,TemperatureF,DewpointF,PressureIn,WindDirection,WindDirectionDegrees,WindSpeedMPH,WindSpeedGustMPH,Humidity,HourlyPrecipIn,Conditions,Clouds,dailyrainin,SoftwareType,DateUTC
2013-02-04 00:01:00,53.7,42.9,30.14,SW,214,0.0,0.0,66,0.00,,,0.00,WUHU216PEETBRO,2013-02-04 05:01:00,
2013-02-04 00:02:00,53.6,43.0,30.14,SW,214,0.0,0.0,67,0.00,,,0.00,WUHU216PEETBRO,2013-02-04 05:02:00,
2013-02-04 00:03:00,53.6,42.9,30.14,SW,214,0.0,0.0,67,0.00,,,0.00,WUHU216PEETBRO,2013-02-04 05:03:00,
2013-02-04 00:08:00,53.5,43.1,30.14,SW,214,0.0,0.0,68,0.00,,,0.00,WUHU216PEETBRO,2013-02-04 05:08:00,
2013-02-04 00:13:00,53.3,43.0,30.14,SW,214,0.0,0.0,68,0.00,,,0.00,WUHU216PEETBRO,2013-02-04 05:13:00,
2013-02-04 00:18:00,53.2,42.9,30.14,SW,214,0.0,0.0,68,0.00,,,0.00,WUHU216PEETBRO,2013-02-04 05:18:00,
2013-02-04 00:23:00,53.0,42.9,30.13,SW,214,0.0,0.0,68,0.00,,,0.00,WUHU216PEETBRO,2013-02-04 05:23:00,
2013-02-04 00:28:00,52.8,42.9,30.13,SW,214,0.0,0.0,69,0.00,,,0.00,WUHU216PEETBRO,2013-02-04 05:28:00,
2013-02-04 00:33:00,52.5,42.9,30.13,SW,214,0.0,0.0,69,0.00,,,0.00,WUHU216PEETBRO,2013-02-04 05:33:00,
2013-02-04 00:38:00,52.3,43.0,30.13,SW,214,0.0,0.0,70,0.00,,,0.00,WUHU216PEETBRO,2013-02-04 05:38:00,
2013-02-04 00:43:00,52.2,43.1,30.13,SW,214,0.0,0.0,71,0.00,,,0.00,WUHU216PEETBRO,2013-02-04 05:43:00,
2013-02-04 00:48:00,52.1,43.2,30.14,SW,214,0.0,0.0,71,0.00,,,0.00,WUHU216PEETBRO,2013-02-04 05:48:00,
2013-02-04 00:53:00,51.9,43.1,30.13,SW,214,0.0,0.0,72,0.00,,,0.00,WUHU216PEETBRO,2013-02-04 05:53:00,
2013-02-04 00:58:00,51.8,43.2,30.14,SW,214,0.0,0.0,72,0.00,,,0.00,WUHU216PEETBRO,2013-02-04 05:58:00,
2013-02-04 01:03:00,51.6,43.1,30.14,SW,214,0.0,0.0,72,0.00,,,0.00,WUHU216PEETBRO,2013-02-04 06:03:00,
2013-02-04 01:08:00,51.4,43.1,30.13,SW,214,0.0,0.0,73,0.00,,,0.00,WUHU216PEETBRO,2013-02-04 06:08:00,
2013-02-04 01:13:00,51.3,43.1,30.14,SW,214,0.0,0.0,73,0.00,,,0.00,WUHU216PEETBRO,2013-02-04 06:13:00,
2013-02-04 01:18:00,51.1,43.0,30.14,SW,214,0.0,0.0,74,0.00,,,0.00,WUHU216PEETBRO,2013-02-04 06:18:00,
2013-02-04 01:23:00,51.1,43.4,30.13,SW,214,0.0,0.0,75,0.00,,,0.00,WUHU216PEETBRO,2013-02-04 06:23:00,
2013-02-04 01:28:00,50.9,43.4,30.13,SW,214,0.0,0.0,75,0.00,,,0.00,WUHU216PEETBRO,2013-02-04 06:28:00,
2013-02-04 01:33:00,50.8,43.5,30.13,SW,214,0.0,0.0,76,0.00,,,0.00,WUHU216PEETBRO,2013-02-04 06:33:00,
2013-02-04 01:38:00,50.8,43.7,30.13,SW,214,0.0,2.4,76,0.00,,,0.00,WUHU216PEETBRO,2013-02-04 06:38:00,
2013-02-04 01:43:00,50.7,43.7,30.13,SW,214,0.0,2.4,77,0.00,,,0.00,WUHU216PEETBRO,2013-02-04 06:43:00,
2013-02-04 01:48:00,50.7,44.0,30.13,SW,214,0.0,0.0,78,0.00,,,0.00,WUHU216PEETBRO,2013-02-04 06:48:00,
2013-02-04 01:53:00,50.6,44.0,30.13,SW,214,0.0,0.0,78,0.00,,,0.00,WUHU216PEETBRO,2013-02-04 06:53:00,
2013-02-04 01:58:00,50.6,44.3,30.13,SW,214,0.0,0.0,79,0.00,,,0.00,WUHU216PEETBRO,2013-02-04 06:58:00,
2013-02-04 02:03:00,50.5,44.5,30.13,WNW,296,0.0,3.2,80,0.00,,,0.00,WUHU216PEETBRO,2013-02-04 07:03:00,
2013-02-04 02:08:00,50.4,44.4,30.13,WNW,290,0.0,3.2,80,0.00,,,0.00,WUHU216PEETBRO,2013-02-04 07:08:00,
2013-02-04 02:13:00,50.3,44.4,30.13,West,266,0.0,2.8,80,0.00,,,0.00,WUHU216PEETBRO,2013-02-04 07:13:00,
2013-02-04 02:18:00,50.1,44.4,30.13,West,266,0.0,2.8,81,0.00,,,0.00,WUHU216PEETBRO,2013-02-04 07:18:00,
2013-02-04 02:23:00,49.9,44.5,30.13,WSW,249,0.0,0.0,82,0.00,,,0.00,WUHU216PEETBRO,2013-02-04 07:23:00,
2013-02-04 02:28:00,49.8,44.7,30.13,WSW,249,0.0,0.0,82,0.00,,,0.00,WUHU216PEETBRO,2013-02-04 07:28:00,
2013-02-04 02:33:00,49.7,44.6,30.13,WSW,249,0.0,0.0,82,0.00,,,0.00,WUHU216PEETBRO,2013-02-04 07:33:00,
2013-02-04 02:38:00,49.6,44.8,30.13,NW,316,0.0,5.7,83,0.00,,,0.00,WUHU216PEETBRO,2013-02-04 07:38:00,
2013-02-04 02:43:00,49.4,44.7,30.13,NNW,330,0.0,5.7,84,0.00,,,0.00,WUHU216PEETBRO,2013-02-04 07:43:00,
2013-02-04 02:48:00,49.3,44.7,30.13,NNW,331,0.0,4.3,84,0.00,,,0.00,WUHU216PEETBRO,2013-02-04 07:48:00,
2013-02-04 02:53:00,49.2,44.6,30.13,NNW,331,0.0,4.3,84,0.00,,,0.00,WUHU216PEETBRO,2013-02-04 07:53:00,
2013-02-04 02:58:00,49.1,44.6,30.13,NNW,331,0.0,0.0,84,0.00,,,0.00,WUHU216PEETBRO,2013-02-04 07:58:00,
2013-02-04 03:03:00,48.9,44.5,30.13,NNW,331,0.0,0.0,85,0.00,,,0.00,WUHU216PEETBRO,2013-02-04 08:03:00,
2013-02-04 03:08:00,49.0,44.7,30.13,NNW,331,0.0,0.0,85,0.00,,,0.00,WUHU216PEETBRO,2013-02-04 08:08:00,
2013-02-04 03:13:00,48.8,44.5,30.13,NNW,331,0.0,0.0,85,0.00,,,0.00,WUHU216PEETBRO,2013-02-04 08:13:00,
2013-02-04 03:18:00,48.8,44.6,30.13,NNW,331,0.0,0.0,86,0.00,,,0.00,WUHU216PEETBRO,2013-02-04 08:18:00,
2013-02-04 03:23:00,48.6,44.5,30.13,NNW,331,0.0,0.0,86,0.00,,,0.00,WUHU216PEETBRO,2013-02-04 08:23:00,
2013-02-04 03:28:00,48.4,44.4,30.13,NNW,331,0.0,0.0,86,0.00,,,0.00,WUHU216PEETBRO,2013-02-04 08:28:00,
2013-02-04 03:33:00,48.2,44.4,30.13,NNW,331,0.0,0.0,87,0.00,,,0.00,WUHU216PEETBRO,2013-02-04 08:33:00,
2013-02-04 03:38:00,48.1,44.4,30.13,NNW,331,0.0,0.0,87,0.00,,,0.00,WUHU216PEETBRO,2013-02-04 08:38:00,
2013-02-04 03:43:00,47.8,44.1,30.13,NNW,331,0.0,0.0,87,0.00,,,0.00,WUHU216PEETBRO,2013-02-04 08:43:00,
2013-02-04 03:48:00,47.8,44.2,30.12,NNW,331,0.0,0.0,88,0.00,,,0.00,WUHU216PEETBRO,2013-02-04 08:48:00,
2013-02-04 03:53:00,47.5,44.1,30.12,NNW,331,0.0,0.0,88,0.00,,,0.00,WUHU216PEETBRO,2013-02-04 08:53:00,
2013-02-04 03:58:00,47.5,44.2,30.12,NNW,331,0.0,0.0,88,0.00,,,0.00,WUHU216PEETBRO,2013-02-04 08:58:00,
2013-02-04 04:03:00,47.4,44.3,30.13,NNW,331,0.0,0.0,89,0.00,,,0.00,WUHU216PEETBRO,2013-02-04 09:03:00,
2013-02-04 04:08:00,47.5,44.5,30.13,NNW,331,0.0,0.0,89,0.00,,,0.00,WUHU216PEETBRO,2013-02-04 09:08:00,
2013-02-04 04:13:00,47.4,44.5,30.13,NNW,331,0.0,0.0,90,0.00,,,0.00,WUHU216PEETBRO,2013-02-04 09:13:00,
2013-02-04 04:18:00,47.3,44.4,30.13,NNW,331,0.0,0.0,90,0.00,,,0.00,WUHU216PEETBRO,2013-02-04 09:18:00,
2013-02-04 04:23:00,47.3,44.4,30.13,NNW,331,0.0,0.0,90,0.00,,,0.00,WUHU216PEETBRO,2013-02-04 09:23:00,
2013-02-04 04:28:00,47.2,44.4,30.13,NNW,331,0.0,0.0,90,0.00,,,0.00,WUHU216PEETBRO,2013-02-04 09:28:00,
2013-02-04 04:33:00,47.1,44.3,30.13,NNW,331,0.0,0.0,90,0.00,,,0.00,WUHU216PEETBRO,2013-02-04 09:33:00,
2013-02-04 04:38:00,47.1,44.4,30.12,NNW,331,0.0,0.0,90,0.00,,,0.00,WUHU216PEETBRO,2013-02-04 09:38:00,
2013-02-04 04:43:00,47.0,44.3,30.13,NNW,331,0.0,0.0,90,0.00,,,0.00,WUHU216PEETBRO,2013-02-04 09:43:00,
2013-02-04 04:48:00,47.0,44.4,30.13,NNW,331,0.0,0.0,91,0.00,,,0.00,WUHU216PEETBRO,2013-02-04 09:48:00,
2013-02-04 04:53:00,46.8,44.2,30.13,NNW,331,0.0,0.0,91,0.00,,,0.00,WUHU216PEETBRO,2013-02-04 09:53:00,
2013-02-04 04:58:00,46.8,44.3,30.13,NNW,331,0.0,0.0,91,0.00,,,0.00,WUHU216PEETBRO,2013-02-04 09:58:00,
2013-02-04 05:03:00,46.7,44.3,30.13,NNW,331,0.0,0.0,91,0.00,,,0.00,WUHU216PEETBRO,2013-02-04 10:03:00,
2013-02-04 05:08:00,46.6,44.2,30.13,NNW,331,0.0,0.0,91,0.00,,,0.00,WUHU216PEETBRO,2013-02-04 10:08:00,
2013-02-04 05:13:00,46.3,43.9,30.13,NNW,331,0.0,0.0,91,0.00,,,0.00,WUHU216PEETBRO,2013-02-04 10:13:00,
2013-02-04 05:18:00,46.2,43.8,30.14,NNW,331,0.0,0.0,92,0.00,,,0.00,WUHU216PEETBRO,2013-02-04 10:18:00,
2013-02-04 05:23:00,46.0,43.6,30.14,NNW,331,0.0,0.0,92,0.00,,,0.00,WUHU216PEETBRO,2013-02-04 10:23:00,
2013-02-04 05:28:00,45.8,43.5,30.14,NNW,331,0.0,0.0,92,0.00,,,0.00,WUHU216PEETBRO,2013-02-04 10:28:00,
2013-02-04 05:33:00,45.5,43.2,30.14,NNW,331,0.0,0.0,92,0.00,,,0.00,WUHU216PEETBRO,2013-02-04 10:33:00,
2013-02-04 05:38:00,45.4,43.2,30.14,NNW,331,0.0,0.0,92,0.00,,,0.00,WUHU216PEETBRO,2013-02-04 10:38:00,
2013-02-04 05:43:00,45.3,43.1,30.14,NNW,331,0.0,0.0,92,0.00,,,0.00,WUHU216PEETBRO,2013-02-04 10:43:00,
2013-02-04 05:48:00,45.3,43.2,30.14,NNW,331,0.0,0.0,93,0.00,,,0.00,WUHU216PEETBRO,2013-02-04 10:48:00,
2013-02-04 05:53:00,45.3,43.3,30.14,NNW,331,0.0,0.0,93,0.00,,,0.00,WUHU216PEETBRO,2013-02-04 10:53:00,
2013-02-04 05:58:00,45.2,43.2,30.14,NNW,331,0.0,0.0,93,0.00,,,0.00,WUHU216PEETBRO,2013-02-04 10:58:00,
2013-02-04 06:03:00,45.4,43.5,30.14,NNW,331,0.0,0.0,93,0.00,,,0.00,WUHU216PEETBRO,2013-02-04 11:03:00,
2013-02-04 06:08:00,45.6,43.7,30.14,NNW,331,0.0,0.0,93,0.00,,,0.00,WUHU216PEETBRO,2013-02-04 11:08:00,
2013-02-04 06:13:00,45.5,43.6,30.14,NNW,331,0.0,0.0,93,0.00,,,0.00,WUHU216PEETBRO,2013-02-04 11:13:00,
2013-02-04 06:18:00,45.3,43.4,30.14,NNW,331,0.0,0.0,93,0.00,,,0.00,WUHU216PEETBRO,2013-02-04 11:18:00,
2013-02-04 06:23:00,45.2,43.4,30.14,NNW,331,0.0,0.0,93,0.00,,,0.00,WUHU216PEETBRO,2013-02-04 11:23:00,
2013-02-04 06:28:00,45.4,43.7,30.14,NNW,331,0.0,0.0,94,0.00,,,0.00,WUHU216PEETBRO,2013-02-04 11:28:00,
2013-02-04 06:33:00,45.4,43.6,30.14,NNW,331,0.0,0.0,94,0.00,,,0.00,WUHU216PEETBRO,2013-02-04 11:33:00,
2013-02-04 06:38:00,45.5,43.7,30.14,NNW,331,0.0,0.0,94,0.00,,,0.00,WUHU216PEETBRO,2013-02-04 11:38:00,
2013-02-04 06:43:00,45.4,43.6,30.14,NNW,331,0.0,0.0,94,0.00,,,0.00,WUHU216PEETBRO,2013-02-04 11:43:00,
2013-02-04 06:48:00,45.5,43.9,30.14,NNW,331,0.0,0.0,94,0.00,,,0.00,WUHU216PEETBRO,2013-02-04 11:48:00,
2013-02-04 06:53:00,45.4,43.8,30.14,NNW,331,0.0,0.0,94,0.00,,,0.00,WUHU216PEETBRO,2013-02-04 11:53:00,
2013-02-04 06:58:00,45.5,43.9,30.14,NNW,331,0.0,0.0,94,0.00,,,0.00,WUHU216PEETBRO,2013-02-04 11:58:00,
2013-02-04 07:03:00,45.4,43.8,30.14,NNW,331,0.0,0.0,94,0.00,,,0.00,WUHU216PEETBRO,2013-02-04 12:03:00,
2013-02-04 07:08:00,45.6,44.1,30.14,NNW,331,0.0,0.0,95,0.00,,,0.00,WUHU216PEETBRO,2013-02-04 12:08:00,
2013-02-04 07:13:00,45.5,44.0,30.14,NNW,331,0.0,0.0,95,0.00,,,0.00,WUHU216PEETBRO,2013-02-04 12:13:00,
2013-02-04 07:18:00,45.5,44.0,30.14,NNW,331,0.0,0.0,95,0.00,,,0.00,WUHU216PEETBRO,2013-02-04 12:18:00,
2013-02-04 07:23:00,45.5,44.0,30.14,NNW,331,0.0,0.0,95,0.00,,,0.00,WUHU216PEETBRO,2013-02-04 12:23:00,
2013-02-04 07:28:00,45.4,44.0,30.14,NNW,331,0.0,0.0,95,0.00,,,0.00,WUHU216PEETBRO,2013-02-04 12:28:00,
2013-02-04 07:33:00,45.6,44.2,30.14,NNW,331,0.0,0.0,95,0.00,,,0.00,WUHU216PEETBRO,2013-02-04 12:33:00,
2013-02-04 07:38:00,45.8,44.5,30.14,NNW,331,0.0,0.0,95,0.00,,,0.00,WUHU216PEETBRO,2013-02-04 12:38:00,
2013-02-04 07:43:00,45.8,44.4,30.14,NNW,331,0.0,0.0,95,0.00,,,0.00,WUHU216PEETBRO,2013-02-04 12:43:00,
2013-02-04 07:48:00,45.9,44.6,30.14,NNW,331,0.0,0.0,95,0.00,,,0.00,WUHU216PEETBRO,2013-02-04 12:48:00,
2013-02-04 07:53:00,46.1,44.8,30.14,NNW,331,0.0,0.0,96,0.00,,,0.00,WUHU216PEETBRO,2013-02-04 12:53:00,
2013-02-04 07:58:00,46.6,45.3,30.14,NNW,331,0.0,0.0,96,0.00,,,0.00,WUHU216PEETBRO,2013-02-04 12:58:00,
2013-02-04 08:03:00,47.1,45.9,30.14,NNW,331,0.0,0.0,96,0.00,,,0.00,WUHU216PEETBRO,2013-02-04 13:03:00,
2013-02-04 08:08:00,47.5,46.2,30.15,NNW,331,0.0,0.0,95,0.00,,,0.00,WUHU216PEETBRO,2013-02-04 13:08:00,
2013-02-04 08:13:00,48.1,46.7,30.15,NNW,331,0.0,0.0,95,0.00,,,0.00,WUHU216PEETBRO,2013-02-04 13:13:00,
2013-02-04 08:18:00,48.5,47.0,30.15,NNW,331,0.0,0.0,95,0.00,,,0.00,WUHU216PEETBRO,2013-02-04 13:18:00,
2013-02-04 08:23:00,48.8,47.2,30.15,NNW,331,0.0,0.0,94,0.00,,,0.00,WUHU216PEETBRO,2013-02-04 13:23:00,
2013-02-04 08:28:00,49.1,47.4,30.15,NNW,331,0.0,0.0,94,0.00,,,0.00,WUHU216PEETBRO,2013-02-04 13:28:00,
2013-02-04 08:33:00,49.4,47.6,30.15,NNW,331,0.0,0.0,94,0.00,,,0.00,WUHU216PEETBRO,2013-02-04 13:33:00,
2013-02-04 08:38:00,49.6,47.8,30.16,NNW,331,0.0,0.0,94,0.00,,,0.00,WUHU216PEETBRO,2013-02-04 13:38:00,
2013-02-04 08:43:00,49.9,47.9,30.16,NNW,331,0.0,0.0,93,0.00,,,0.00,WUHU216PEETBRO,2013-02-04 13:43:00,
2013-02-04 08:48:00,50.0,47.9,30.16,NNW,345,0.0,5.6,93,0.00,,,0.00,WUHU216PEETBRO,2013-02-04 13:48:00,
2013-02-04 08:53:00,50.3,48.1,30.16,NNW,343,0.0,5.6,92,0.00,,,0.00,WUHU216PEETBRO,2013-02-04 13:53:00,
2013-02-04 08:58:00,50.5,48.2,30.15,NNW,343,0.0,5.6,92,0.00,,,0.00,WUHU216PEETBRO,2013-02-04 13:58:00,
2013-02-04 09:03:00,50.8,48.6,30.16,NNW,343,0.0,0.0,92,0.00,,,0.00,WUHU216PEETBRO,2013-02-04 14:03:00,
2013-02-04 09:08:00,51.2,49.0,30.16,NNW,343,0.0,0.0,92,0.00,,,0.00,WUHU216PEETBRO,2013-02-04 14:08:00,
2013-02-04 09:13:00,51.7,49.1,30.16,WSW,254,0.0,6.0,91,0.00,,,0.00,WUHU216PEETBRO,2013-02-04 14:13:00,
2013-02-04 09:18:00,52.2,48.9,30.16,WSW,254,0.0,6.0,89,0.00,,,0.00,WUHU216PEETBRO,2013-02-04 14:18:00,
2013-02-04 09:23:00,52.7,49.0,30.16,SW,221,0.0,0.0,87,0.00,,,0.00,WUHU216PEETBRO,2013-02-04 14:23:00,
2013-02-04 09:28:00,53.2,48.7,30.16,NW,310,3.3,5.8,85,0.00,,,0.00,WUHU216PEETBRO,2013-02-04 14:28:00,
2013-02-04 09:33:00,53.8,48.6,30.16,NW,309,2.5,5.8,83,0.00,,,0.00,WUHU216PEETBRO,2013-02-04 14:33:00,
2013-02-04 09:38:00,54.4,49.1,30.16,NW,307,0.0,6.3,82,0.00,,,0.00,WUHU216PEETBRO,2013-02-04 14:38:00,
2013-02-04 09:43:00,55.2,49.7,30.16,NW,307,0.0,6.3,82,0.00,,,0.00,WUHU216PEETBRO,2013-02-04 14:43:00,
2013-02-04 09:48:00,56.0,49.5,30.15,ENE,63,0.0,5.5,79,0.00,,,0.00,WUHU216PEETBRO,2013-02-04 14:48:00,
2013-02-04 09:53:00,56.7,48.7,30.15,NE,36,5.7,6.5,74,0.00,,,0.00,WUHU216PEETBRO,2013-02-04 14:53:00,
2013-02-04 09:58:00,57.2,47.6,30.16,NNE,16,0.0,6.5,70,0.00,,,0.00,WUHU216PEETBRO,2013-02-04 14:58:00,
2013-02-04 10:03:00,58.0,47.1,30.16,WNW,289,0.0,7.1,67,0.00,,,0.00,WUHU216PEETBRO,2013-02-04 15:03:00,
2013-02-04 10:08:00,59.0,47.6,30.16,WNW,289,0.0,7.1,66,0.00,,,0.00,WUHU216PEETBRO,2013-02-04 15:08:00,
2013-02-04 10:13:00,59.5,45.3,30.17,WNW,289,0.0,0.0,59,0.00,,,0.00,WUHU216PEETBRO,2013-02-04 15:13:00,
2013-02-04 10:18:00,60.2,46.1,30.17,NNW,340,6.3,6.3,59,0.00,,,0.00,WUHU216PEETBRO,2013-02-04 15:18:00,
2013-02-04 10:23:00,60.6,46.2,30.17,NNE,33,2.7,6.3,59,0.00,,,0.00,WUHU216PEETBRO,2013-02-04 15:23:00,
2013-02-04 10:28:00,61.3,46.3,30.17,NE,50,0.0,6.5,58,0.00,,,0.00,WUHU216PEETBRO,2013-02-04 15:28:00,
2013-02-04 10:33:00,61.6,44.9,30.17,North,355,0.0,6.5,54,0.00,,,0.00,WUHU216PEETBRO,2013-02-04 15:33:00,
2013-02-04 10:38:00,61.5,45.7,30.16,North,7,0.0,4.2,56,0.00,,,0.00,WUHU216PEETBRO,2013-02-04 15:38:00,
2013-02-04 10:43:00,61.8,45.5,30.16,NE,50,5.2,5.2,55,0.00,,,0.00,WUHU216PEETBRO,2013-02-04 15:43:00,
2013-02-04 10:48:00,62.7,46.5,30.16,ENE,69,0.0,6.5,55,0.00,,,0.00,WUHU216PEETBRO,2013-02-04 15:48:00,
2013-02-04 10:53:00,63.1,46.0,30.16,WSW,237,0.0,6.5,54,0.00,,,0.00,WUHU216PEETBRO,2013-02-04 15:53:00,
2013-02-04 10:58:00,63.2,46.9,30.16,WSW,237,0.0,5.5,55,0.00,,,0.00,WUHU216PEETBRO,2013-02-04 15:58:00,
2013-02-04 11:03:00,63.6,47.6,30.15,WSW,237,2.8,2.8,56,0.00,,,0.00,WUHU216PEETBRO,2013-02-04 16:03:00,
2013-02-04 11:08:00,64.1,46.0,30.15,NE,42,5.5,8.5,52,0.00,,,0.00,WUHU216PEETBRO,2013-02-04 16:08:00,
2013-02-04 11:13:00,63.8,46.8,30.15,NE,38,0.0,8.5,54,0.00,,,0.00,WUHU216PEETBRO,2013-02-04 16:13:00,
2013-02-04 11:18:00,63.9,46.9,30.15,ESE,110,7.6,7.6,54,0.00,,,0.00,WUHU216PEETBRO,2013-02-04 16:18:00,
2013-02-04 11:23:00,63.9,45.7,30.14,East,79,3.3,7.6,51,0.00,,,0.00,WUHU216PEETBRO,2013-02-04 16:23:00,
2013-02-04 11:28:00,64.3,46.6,30.14,NE,47,0.0,6.8,53,0.00,,,0.00,WUHU216PEETBRO,2013-02-04 16:28:00,
2013-02-04 11:33:00,64.2,46.8,30.14,SSE,153,0.0,6.8,53,0.00,,,0.00,WUHU216PEETBRO,2013-02-04 16:33:00,
2013-02-04 11:38:00,64.7,45.7,30.14,East,95,5.1,6.3,50,0.00,,,0.00,WUHU216PEETBRO,2013-02-04 16:38:00,
2013-02-04 11:43:00,64.8,45.5,30.14,ENE,63,3.3,6.3,50,0.00,,,0.00,WUHU216PEETBRO,2013-02-04 16:43:00,
2013-02-04 11:48:00,64.7,44.7,30.14,ENE,62,4.2,6.4,48,0.00,,,0.00,WUHU216PEETBRO,2013-02-04 16:48:00,
2013-02-04 11:53:00,64.9,46.1,30.14,NE,49,7.0,10.4,51,0.00,,,0.00,WUHU216PEETBRO,2013-02-04 16:53:00,
2013-02-04 11:58:00,65.2,45.0,30.13,NNE,14,0.0,10.4,48,0.00,,,0.00,WUHU216PEETBRO,2013-02-04 16:58:00,
2013-02-04 12:03:00,65.5,46.4,30.13,ENE,66,0.0,9.8,50,0.00,,,0.00,WUHU216PEETBRO,2013-02-04 17:03:00,
2013-02-04 12:08:00,65.7,47.6,30.13,NE,47,0.0,10.5,52,0.00,,,0.00,WUHU216PEETBRO,2013-02-04 17:08:00,
2013-02-04 12:13:00,66.0,48.2,30.12,ESE,114,8.8,10.5,53,0.00,,,0.00,WUHU216PEETBRO,2013-02-04 17:13:00,
2013-02-04 12:18:00,66.2,49.1,30.12,NE,40,7.1,10.5,54,0.00,,,0.00,WUHU216PEETBRO,2013-02-04 17:18:00,
2013-02-04 12:23:00,66.5,48.4,30.12,East,88,6.9,10.5,52,0.00,,,0.00,WUHU216PEETBRO,2013-02-04 17:23:00,
2013-02-04 12:28:00,67.1,48.6,30.12,SSE,163,5.3,7.6,51,0.00,,,0.00,WUHU216PEETBRO,2013-02-04 17:28:00,
2013-02-04 12:33:00,67.1,48.0,30.12,NE,45,0.0,7.1,50,0.00,,,0.00,WUHU216PEETBRO,2013-02-04 17:33:00,
2013-02-04 12:38:00,66.8,48.4,30.12,SSE,152,0.0,7.6,52,0.00,,,0.00,WUHU216PEETBRO,2013-02-04 17:38:00,
2013-02-04 12:43:00,67.2,48.6,30.11,SSE,152,0.0,7.6,51,0.00,,,0.00,WUHU216PEETBRO,2013-02-04 17:43:00,
2013-02-04 12:48:00,67.7,48.6,30.11,SSE,165,5.1,5.3,50,0.00,,,0.00,WUHU216PEETBRO,2013-02-04 17:48:00,
2013-02-04 12:53:00,67.8,49.2,30.11,NE,53,5.0,7.5,51,0.00,,,0.00,WUHU216PEETBRO,2013-02-04 17:53:00,
2013-02-04 12:58:00,68.2,49.2,30.11,ENE,63,3.5,9.9,51,0.00,,,0.00,WUHU216PEETBRO,2013-02-04 17:58:00,
2013-02-04 13:03:00,67.9,49.1,30.10,SSE,148,6.2,9.9,51,0.00,,,0.00,WUHU216PEETBRO,2013-02-04 18:03:00,
2013-02-04 13:08:00,67.5,49.0,30.10,ESE,110,0.0,9.5,51,0.00,,,0.00,WUHU216PEETBRO,2013-02-04 18:08:00,
2013-02-04 13:13:00,67.8,50.1,30.10,ENE,59,4.7,9.5,53,0.00,,,0.00,WUHU216PEETBRO,2013-02-04 18:13:00,
2013-02-04 13:18:00,67.4,49.8,30.09,ESE,108,0.0,8.3,53,0.00,,,0.00,WUHU216PEETBRO,2013-02-04 18:18:00,
2013-02-04 13:23:00,67.3,49.9,30.09,SE,127,0.0,7.8,53,0.00,,,0.00,WUHU216PEETBRO,2013-02-04 18:23:00,
2013-02-04 13:28:00,67.6,49.7,30.09,SSE,167,5.2,11.2,53,0.00,,,0.00,WUHU216PEETBRO,2013-02-04 18:28:00,
2013-02-04 13:33:00,68.0,50.7,30.08,East,88,0.0,11.2,54,0.00,,,0.00,WUHU216PEETBRO,2013-02-04 18:33:00,
2013-02-04 13:38:00,68.1,50.5,30.08,East,84,0.0,10.9,53,0.00,,,0.00,WUHU216PEETBRO,2013-02-04 18:38:00,
2013-02-04 13:43:00,68.5,51.1,30.08,SSE,153,4.3,10.4,54,0.00,,,0.00,WUHU216PEETBRO,2013-02-04 18:43:00,
2013-02-04 13:48:00,68.4,50.9,30.08,SSE,162,0.0,7.3,54,0.00,,,0.00,WUHU216PEETBRO,2013-02-04 18:48:00,
2013-02-04 13:54:00,68.4,50.7,30.07,NNW,338,0.0,5.4,53,0.00,,,0.00,WUHU216PEETBRO,2013-02-04 18:54:00,
2013-02-04 13:59:00,68.7,51.3,30.07,ESE,103,5.7,6.7,54,0.00,,,0.00,WUHU216PEETBRO,2013-02-04 18:59:00,
2013-02-04 14:04:00,68.6,51.0,30.07,ESE,108,0.0,6.7,53,0.00,,,0.00,WUHU216PEETBRO,2013-02-04 19:04:00,
2013-02-04 14:09:00,68.7,51.1,30.07,SSE,162,0.0,6.9,53,0.00,,,0.00,WUHU216PEETBRO,2013-02-04 19:09:00,
2013-02-04 14:14:00,68.9,50.9,30.07,ENE,63,0.0,7.3,52,0.00,,,0.00,WUHU216PEETBRO,2013-02-04 19:14:00,
2013-02-04 14:19:00,68.7,50.9,30.06,East,80,3.4,8.0,53,0.00,,,0.00,WUHU216PEETBRO,2013-02-04 19:19:00,
2013-02-04 14:24:00,69.1,52.0,30.06,NNE,29,4.2,8.0,54,0.00,,,0.00,WUHU216PEETBRO,2013-02-04 19:24:00,
2013-02-04 14:29:00,69.3,51.3,30.06,NE,49,3.0,7.6,53,0.00,,,0.00,WUHU216PEETBRO,2013-02-04 19:29:00,
2013-02-04 14:34:00,69.4,52.2,30.06,ENE,62,0.0,7.1,54,0.00,,,0.00,WUHU216PEETBRO,2013-02-04 19:34:00,
2013-02-04 14:39:00,69.9,51.1,30.06,South,172,3.2,7.1,51,0.00,,,0.00,WUHU216PEETBRO,2013-02-04 19:39:00,
2013-02-04 14:44:00,70.6,51.1,30.06,WSW,247,0.0,6.8,50,0.00,,,0.00,WUHU216PEETBRO,2013-02-04 19:44:00,
2013-02-04 14:49:00,70.6,51.1,30.06,East,98,0.0,6.9,50,0.00,,,0.00,WUHU216PEETBRO,2013-02-04 19:49:00,
2013-02-04 14:54:00,70.1,51.3,30.07,SSE,159,3.1,8.5,51,0.00,,,0.00,WUHU216PEETBRO,2013-02-04 19:54:00,
2013-02-04 14:59:00,70.1,50.9,30.06,SE,135,6.4,8.5,50,0.00,,,0.00,WUHU216PEETBRO,2013-02-04 19:59:00,
2013-02-04 15:04:00,69.8,50.9,30.06,East,101,0.0,7.1,51,0.00,,,0.00,WUHU216PEETBRO,2013-02-04 20:04:00,
2013-02-04 15:09:00,70.1,50.8,30.06,ESE,104,0.0,7.1,50,0.00,,,0.00,WUHU216PEETBRO,2013-02-04 20:09:00,
2013-02-04 15:14:00,70.3,50.7,30.06,NE,56,6.5,7.0,50,0.00,,,0.00,WUHU216PEETBRO,2013-02-04 20:14:00,
2013-02-04 15:19:00,70.3,50.6,30.06,NNE,21,0.0,7.0,50,0.00,,,0.00,WUHU216PEETBRO,2013-02-04 20:19:00,
2013-02-04 15:24:00,70.4,50.5,30.07,NNE,28,0.0,7.5,49,0.00,,,0.00,WUHU216PEETBRO,2013-02-04 20:24:00,
2013-02-04 15:29:00,70.5,50.4,30.06,NNE,28,0.0,7.5,49,0.00,,,0.00,WUHU216PEETBRO,2013-02-04 20:29:00,
2013-02-04 15:34:00,70.7,50.4,30.06,West,262,4.8,4.8,49,0.00,,,0.00,WUHU216PEETBRO,2013-02-04 20:34:00,
2013-02-04 15:39:00,70.9,50.2,30.06,SSE,148,0.0,6.3,48,0.00,,,0.00,WUHU216PEETBRO,2013-02-04 20:39:00,
2013-02-04 15:44:00,71.0,50.0,30.07,SSE,148,0.0,6.3,47,0.00,,,0.00,WUHU216PEETBRO,2013-02-04 20:44:00,
2013-02-04 15:49:00,70.9,50.2,30.06,SSW,213,5.8,5.8,48,0.00,,,0.00,WUHU216PEETBRO,2013-02-04 20:49:00,
2013-02-04 15:54:00,70.8,50.0,30.07,South,189,3.2,6.0,48,0.00,,,0.00,WUHU216PEETBRO,2013-02-04 20:54:00,
2013-02-04 15:59:00,70.6,49.6,30.07,SSE,153,0.0,7.3,47,0.00,,,0.00,WUHU216PEETBRO,2013-02-04 20:59:00,
2013-02-04 16:04:00,70.6,49.4,30.07,SSE,156,0.0,7.3,47,0.00,,,0.00,WUHU216PEETBRO,2013-02-04 21:04:00,
2013-02-04 16:09:00,70.4,49.2,30.07,SW,223,4.3,7.8,47,0.00,,,0.00,WUHU216PEETBRO,2013-02-04 21:09:00,
2013-02-04 16:14:00,70.3,48.9,30.07,SW,231,0.0,7.8,47,0.00,,,0.00,WUHU216PEETBRO,2013-02-04 21:14:00,
2013-02-04 16:19:00,70.2,48.6,30.07,SSE,163,0.0,6.1,46,0.00,,,0.00,WUHU216PEETBRO,2013-02-04 21:19:00,
2013-02-04 16:24:00,69.8,48.2,30.07,SSE,163,0.0,6.1,46,0.00,,,0.00,WUHU216PEETBRO,2013-02-04 21:24:00,
2013-02-04 16:29:00,69.6,48.2,30.08,South,179,0.0,6.1,47,0.00,,,0.00,WUHU216PEETBRO,2013-02-04 21:29:00,
2013-02-04 16:34:00,69.5,47.8,30.08,South,173,0.0,6.1,46,0.00,,,0.00,WUHU216PEETBRO,2013-02-04 21:34:00,
2013-02-04 16:39:00,69.4,47.6,30.08,West,273,0.0,6.1,46,0.00,,,0.00,WUHU216PEETBRO,2013-02-04 21:39:00,
2013-02-04 16:44:00,69.2,47.6,30.08,West,273,0.0,6.1,46,0.00,,,0.00,WUHU216PEETBRO,2013-02-04 21:44:00,
2013-02-04 16:49:00,69.2,47.3,30.08,WNW,285,4.2,5.7,46,0.00,,,0.00,WUHU216PEETBRO,2013-02-04 21:49:00,
2013-02-04 16:54:00,69.1,46.8,30.08,North,1,0.0,5.7,45,0.00,,,0.00,WUHU216PEETBRO,2013-02-04 21:54:00,
2013-02-04 16:59:00,69.1,46.7,30.09,WSW,241,0.0,4.7,45,0.00,,,0.00,WUHU216PEETBRO,2013-02-04 21:59:00,
2013-02-04 17:04:00,68.9,46.4,30.08,WSW,255,7.2,7.2,45,0.00,,,0.00,WUHU216PEETBRO,2013-02-04 22:04:00,
2013-02-04 17:09:00,68.6,45.9,30.08,West,279,0.0,7.2,44,0.00,,,0.00,WUHU216PEETBRO,2013-02-04 22:09:00,
2013-02-04 17:14:00,68.5,45.6,30.08,WSW,251,7.6,7.6,44,0.00,,,0.00,WUHU216PEETBRO,2013-02-04 22:14:00,
2013-02-04 17:19:00,68.5,45.3,30.09,WNW,295,4.7,7.6,43,0.00,,,0.00,WUHU216PEETBRO,2013-02-04 22:19:00,
2013-02-04 17:24:00,68.5,44.9,30.08,West,275,0.0,7.6,43,0.00,,,0.00,WUHU216PEETBRO,2013-02-04 22:24:00,
2013-02-04 17:29:00,68.4,44.4,30.09,NNW,331,5.2,6.0,42,0.00,,,0.00,WUHU216PEETBRO,2013-02-04 22:29:00,
2013-02-04 17:34:00,68.3,43.9,30.09,WSW,251,3.4,6.8,42,0.00,,,0.00,WUHU216PEETBRO,2013-02-04 22:34:00,
2013-02-04 17:39:00,68.3,43.7,30.09,WSW,239,2.7,6.9,41,0.00,,,0.00,WUHU216PEETBRO,2013-02-04 22:39:00,
2013-02-04 17:44:00,68.2,43.1,30.09,SW,218,0.0,6.9,41,0.00,,,0.00,WUHU216PEETBRO,2013-02-04 22:44:00,
2013-02-04 17:49:00,68.1,42.7,30.09,North,351,3.5,6.4,40,0.00,,,0.00,WUHU216PEETBRO,2013-02-04 22:49:00,
2013-02-04 17:54:00,67.9,42.3,30.09,West,262,0.0,6.4,40,0.00,,,0.00,WUHU216PEETBRO,2013-02-04 22:54:00,
2013-02-04 17:59:00,67.7,41.8,30.09,WNW,302,3.4,5.5,39,0.00,,,0.00,WUHU216PEETBRO,2013-02-04 22:59:00,
2013-02-04 18:04:00,67.3,40.7,30.09,NNW,333,7.7,8.4,38,0.00,,,0.00,WUHU216PEETBRO,2013-02-04 23:04:00,
2013-02-04 18:09:00,66.8,40.3,30.09,NW,324,0.0,8.4,38,0.00,,,0.00,WUHU216PEETBRO,2013-02-04 23:09:00,
2013-02-04 18:14:00,66.4,39.5,30.09,NW,324,0.0,6.2,38,0.00,,,0.00,WUHU216PEETBRO,2013-02-04 23:14:00,
2013-02-04 18:19:00,66.1,39.2,30.09,NW,324,0.0,0.0,37,0.00,,,0.00,WUHU216PEETBRO,2013-02-04 23:19:00,
2013-02-04 18:24:00,65.8,38.6,30.09,NW,324,0.0,0.0,37,0.00,,,0.00,WUHU216PEETBRO,2013-02-04 23:24:00,
2013-02-04 18:29:00,65.6,38.4,30.09,NW,324,0.0,0.0,37,0.00,,,0.00,WUHU216PEETBRO,2013-02-04 23:29:00,
2013-02-04 18:34:00,65.3,38.7,30.09,NW,324,0.0,0.0,38,0.00,,,0.00,WUHU216PEETBRO,2013-02-04 23:34:00,
2013-02-04 18:39:00,64.9,38.5,30.10,NW,324,0.0,0.0,38,0.00,,,0.00,WUHU216PEETBRO,2013-02-04 23:39:00,
2013-02-04 18:44:00,64.6,39.0,30.10,NW,324,0.0,0.0,39,0.00,,,0.00,WUHU216PEETBRO,2013-02-04 23:44:00,
2013-02-04 18:49:00,64.1,40.1,30.10,NW,324,0.0,0.0,42,0.00,,,0.00,WUHU216PEETBRO,2013-02-04 23:49:00,
2013-02-04 18:54:00,63.7,38.9,30.10,NW,324,0.0,0.0,40,0.00,,,0.00,WUHU216PEETBRO,2013-02-04 23:54:00,
2013-02-04 18:59:00,63.5,38.8,30.10,NW,324,0.0,0.0,40,0.00,,,0.00,WUHU216PEETBRO,2013-02-04 23:59:00,
2013-02-04 19:04:00,63.2,39.0,30.10,NW,324,0.0,0.0,41,0.00,,,0.00,WUHU216PEETBRO,2013-02-05 00:04:00,
2013-02-04 19:09:00,63.0,39.1,30.10,NW,324,0.0,0.0,42,0.00,,,0.00,WUHU216PEETBRO,2013-02-05 00:09:00,
2013-02-04 19:14:00,62.9,39.5,30.10,NW,324,0.0,0.0,42,0.00,,,0.00,WUHU216PEETBRO,2013-02-05 00:14:00,
2013-02-04 19:19:00,62.8,38.8,30.10,NW,324,0.0,0.0,41,0.00,,,0.00,WUHU216PEETBRO,2013-02-05 00:19:00,
2013-02-04 19:24:00,62.6,38.3,30.10,NW,324,0.0,0.0,41,0.00,,,0.00,WUHU216PEETBRO,2013-02-05 00:24:00,
2013-02-04 19:29:00,62.6,38.2,30.10,NW,324,0.0,0.0,41,0.00,,,0.00,WUHU216PEETBRO,2013-02-05 00:29:00,
2013-02-04 19:34:00,62.4,38.2,30.10,NW,324,0.0,0.0,41,0.00,,,0.00,WUHU216PEETBRO,2013-02-05 00:34:00,
2013-02-04 19:39:00,62.1,38.4,30.09,NW,324,0.0,0.0,42,0.00,,,0.00,WUHU216PEETBRO,2013-02-05 00:39:00,
2013-02-04 19:44:00,61.9,39.1,30.10,NW,324,0.0,0.0,43,0.00,,,0.00,WUHU216PEETBRO,2013-02-05 00:44:00,
2013-02-04 19:49:00,61.6,39.9,30.10,ENE,57,4.4,4.4,45,0.00,,,0.00,WUHU216PEETBRO,2013-02-05 00:49:00,
2013-02-04 19:54:00,61.4,39.9,30.10,ENE,71,3.0,5.5,45,0.00,,,0.00,WUHU216PEETBRO,2013-02-05 00:54:00,
2013-02-04 19:59:00,61.2,40.4,30.10,ENE,70,0.0,5.5,46,0.00,,,0.00,WUHU216PEETBRO,2013-02-05 00:59:00,
2013-02-04 20:04:00,61.0,40.9,30.10,ENE,70,0.0,4.3,48,0.00,,,0.00,WUHU216PEETBRO,2013-02-05 01:04:00,
2013-02-04 20:09:00,60.9,41.2,30.10,ENE,70,0.0,0.0,48,0.00,,,0.00,WUHU216PEETBRO,2013-02-05 01:09:00,
2013-02-04 20:14:00,60.8,41.8,30.10,ENE,70,0.0,0.0,50,0.00,,,0.00,WUHU216PEETBRO,2013-02-05 01:14:00,
2013-02-04 20:19:00,60.5,42.0,30.10,ENE,70,0.0,0.0,51,0.00,,,0.00,WUHU216PEETBRO,2013-02-05 01:19:00,
2013-02-04 20:24:00,60.4,42.6,30.10,ENE,60,0.0,3.3,52,0.00,,,0.00,WUHU216PEETBRO,2013-02-05 01:24:00,
2013-02-04 20:29:00,60.3,42.8,30.10,ENE,60,0.0,3.3,52,0.00,,,0.00,WUHU216PEETBRO,2013-02-05 01:29:00,
2013-02-04 20:34:00,60.1,42.9,30.10,ENE,60,0.0,0.0,53,0.00,,,0.00,WUHU216PEETBRO,2013-02-05 01:34:00,
2013-02-04 20:39:00,59.8,42.9,30.10,NE,56,0.0,4.4,53,0.00,,,0.00,WUHU216PEETBRO,2013-02-05 01:39:00,
2013-02-04 20:44:00,59.5,43.0,30.10,ENE,63,4.7,4.7,54,0.00,,,0.00,WUHU216PEETBRO,2013-02-05 01:44:00,
2013-02-04 20:49:00,59.3,43.4,30.10,NE,52,0.0,4.7,55,0.00,,,0.00,WUHU216PEETBRO,2013-02-05 01:49:00,
2013-02-04 20:54:00,59.1,43.8,30.10,NE,52,0.0,3.4,57,0.00,,,0.00,WUHU216PEETBRO,2013-02-05 01:54:00,
2013-02-04 20:59:00,59.0,44.4,30.11,NE,52,0.0,0.0,58,0.00,,,0.00,WUHU216PEETBRO,2013-02-05 01:59:00,
2013-02-04 21:04:00,58.9,44.7,30.11,NE,52,0.0,0.0,59,0.00,,,0.00,WUHU216PEETBRO,2013-02-05 02:04:00,
2013-02-04 21:09:00,58.8,45.0,30.11,NE,52,0.0,0.0,60,0.00,,,0.00,WUHU216PEETBRO,2013-02-05 02:09:00,
2013-02-04 21:14:00,58.7,45.1,30.10,NE,52,0.0,0.0,60,0.00,,,0.00,WUHU216PEETBRO,2013-02-05 02:14:00,
2013-02-04 21:19:00,58.3,44.9,30.10,NE,52,0.0,0.0,61,0.00,,,0.00,WUHU216PEETBRO,2013-02-05 02:19:00,
2013-02-04 21:24:00,58.1,45.1,30.10,NE,52,0.0,0.0,62,0.00,,,0.00,WUHU216PEETBRO,2013-02-05 02:24:00,
2013-02-04 21:29:00,57.8,45.2,30.10,NE,52,0.0,0.0,63,0.00,,,0.00,WUHU216PEETBRO,2013-02-05 02:29:00,
2013-02-04 21:34:00,57.7,45.7,30.11,NE,52,0.0,0.0,64,0.00,,,0.00,WUHU216PEETBRO,2013-02-05 02:34:00,
2013-02-04 21:39:00,57.5,45.8,30.11,NE,52,0.0,0.0,65,0.00,,,0.00,WUHU216PEETBRO,2013-02-05 02:39:00,
2013-02-04 21:44:00,57.4,47.4,30.11,NE,52,0.0,0.0,69,0.00,,,0.00,WUHU216PEETBRO,2013-02-05 02:44:00,
2013-02-04 21:49:00,57.1,47.6,30.11,NE,52,0.0,0.0,70,0.00,,,0.00,WUHU216PEETBRO,2013-02-05 02:49:00,
2013-02-04 21:54:00,56.7,47.7,30.11,NE,52,0.0,0.0,71,0.00,,,0.00,WUHU216PEETBRO,2013-02-05 02:54:00,
2013-02-04 21:59:00,56.4,47.6,30.11,NE,52,0.0,0.0,72,0.00,,,0.00,WUHU216PEETBRO,2013-02-05 02:59:00,
2013-02-04 22:04:00,56.1,47.5,30.11,NE,52,0.0,0.0,73,0.00,,,0.00,WUHU216PEETBRO,2013-02-05 03:04:00,
2013-02-04 22:09:00,55.7,47.2,30.11,NE,52,0.0,0.0,73,0.00,,,0.00,WUHU216PEETBRO,2013-02-05 03:09:00,
2013-02-04 22:14:00,55.4,47.1,30.11,NE,52,0.0,0.0,73,0.00,,,0.00,WUHU216PEETBRO,2013-02-05 03:14:00,
2013-02-04 22:19:00,55.4,47.6,30.11,NE,52,0.0,0.0,75,0.00,,,0.00,WUHU216PEETBRO,2013-02-05 03:19:00,
2013-02-04 22:24:00,55.4,48.4,30.11,NE,52,0.0,0.0,77,0.00,,,0.00,WUHU216PEETBRO,2013-02-05 03:24:00,
2013-02-04 22:29:00,55.4,49.3,30.11,NE,52,0.0,0.0,80,0.00,,,0.00,WUHU216PEETBRO,2013-02-05 03:29:00,
2013-02-04 22:34:00,55.0,49.1,30.11,NE,52,0.0,0.0,80,0.00,,,0.00,WUHU216PEETBRO,2013-02-05 03:34:00,
2013-02-04 22:39:00,54.7,48.5,30.11,NE,52,0.0,0.0,80,0.00,,,0.00,WUHU216PEETBRO,2013-02-05 03:39:00,
2013-02-04 22:44:00,54.7,48.3,30.11,NE,52,0.0,0.0,79,0.00,,,0.00,WUHU216PEETBRO,2013-02-05 03:44:00,
2013-02-04 22:49:00,54.7,48.5,30.11,NE,52,0.0,0.0,79,0.00,,,0.00,WUHU216PEETBRO,2013-02-05 03:49:00,
2013-02-04 22:54:00,54.8,48.6,30.11,NE,52,0.0,0.0,79,0.00,,,0.00,WUHU216PEETBRO,2013-02-05 03:54:00,
2013-02-04 22:59:00,54.7,48.6,30.11,NE,52,0.0,0.0,80,0.00,,,0.00,WUHU216PEETBRO,2013-02-05 03:59:00,
2013-02-04 23:04:00,54.6,48.7,30.11,NE,52,0.0,0.0,80,0.00,,,0.00,WUHU216PEETBRO,2013-02-05 04:04:00,
2013-02-04 23:09:00,54.6,48.9,30.11,NE,52,0.0,0.0,81,0.00,,,0.00,WUHU216PEETBRO,2013-02-05 04:09:00,
2013-02-04 23:14:00,54.4,48.9,30.11,NE,52,0.0,0.0,82,0.00,,,0.00,WUHU216PEETBRO,2013-02-05 04:14:00,
2013-02-04 23:19:00,54.2,48.8,30.11,NE,52,0.0,0.0,82,0.00,,,0.00,WUHU216PEETBRO,2013-02-05 04:19:00,
2013-02-04 23:24:00,54.2,48.8,30.11,NE,52,0.0,0.0,82,0.00,,,0.00,WUHU216PEETBRO,2013-02-05 04:24:00,
2013-02-04 23:29:00,54.2,49.0,30.11,NE,52,0.0,0.0,82,0.00,,,0.00,WUHU216PEETBRO,2013-02-05 04:29:00,
2013-02-04 23:34:00,54.2,48.9,30.11,NE,52,0.0,0.0,82,0.00,,,0.00,WUHU216PEETBRO,2013-02-05 04:34:00,
2013-02-04 23:39:00,54.1,48.8,30.11,NE,52,0.0,0.0,82,0.00,,,0.00,WUHU216PEETBRO,2013-02-05 04:39:00,
2013-02-04 23:44:00,53.8,48.5,30.11,NE,52,0.0,0.0,82,0.00,,,0.00,WUHU216PEETBRO,2013-02-05 04:44:00,
2013-02-04 23:49:00,53.6,48.5,30.11,NE,52,0.0,0.0,83,0.00,,,0.00,WUHU216PEETBRO,2013-02-05 04:49:00,
2013-02-04 23:54:00,53.4,48.4,30.11,NE,52,0.0,0.0,83,0.00,,,0.00,WUHU216PEETBRO,2013-02-05 04:54:00,
2013-02-04 23:59:00,53.3,48.5,30.11,NE,52,0.0,0.0,84,0.00,,,0.00,WUHU216PEETBRO,2013-02-05 04:59:00,